createdAt,value
2019-02-04T00:00:53.037Z,90.7
2019-02-04T00:01:55.864Z,90.6
2019-02-04T00:02:55.772Z,90.3
2019-02-04T00:03:55.698Z,90
2019-02-04T00:11:00.868Z,88
2019-02-04T00:12:00.846Z,88.4
2019-02-04T00:13:00.772Z,89
2019-02-04T00:14:01.335Z,89.3
2019-02-04T00:15:01.824Z,89.4
2019-02-04T00:16:01.737Z,89.6
2019-02-04T00:17:01.670Z,89.6
2019-02-04T00:18:01.639Z,89.7
2019-02-04T00:19:01.591Z,90
2019-02-04T00:20:01.543Z,90.1
2019-02-04T00:21:01.934Z,90.1
2019-02-04T00:22:02.461Z,90.1
2019-02-04T00:23:02.893Z,90.2
2019-02-04T00:24:03.251Z,90.2
2019-02-04T00:25:03.225Z,90.2
2019-02-04T00:26:03.158Z,90.2
2019-02-04T00:27:03.081Z,90.1
2019-02-04T00:28:03.012Z,90.1
2019-02-04T00:29:03.189Z,90.1
2019-02-04T00:30:03.805Z,90.2
2019-02-04T00:31:05.931Z,90.2
2019-02-04T00:32:06.727Z,90.3
2019-02-04T00:33:06.739Z,89.8
2019-02-04T00:34:06.637Z,89.4
2019-02-04T00:41:06.209Z,87.8
2019-02-04T00:42:06.121Z,88.7
2019-02-04T00:43:06.077Z,88.9
2019-02-04T00:44:06.005Z,89
2019-02-04T00:45:05.942Z,88.8
2019-02-04T00:46:06.535Z,89.1
2019-02-04T00:47:06.621Z,89.1
2019-02-04T00:48:06.558Z,89.3
2019-02-04T00:49:06.459Z,89.6
2019-02-04T00:50:06.371Z,89.7
2019-02-04T00:51:08.053Z,89.8
2019-02-04T00:52:07.993Z,89.8
2019-02-04T00:53:07.905Z,89.7
2019-02-04T00:54:08.577Z,89.9
2019-02-04T00:55:08.571Z,89.8
2019-02-04T00:56:08.481Z,90
2019-02-04T00:57:08.425Z,90.1
2019-02-04T00:58:08.333Z,90.2
2019-02-04T00:59:08.255Z,90.2
2019-02-04T01:00:08.163Z,90.2
2019-02-04T01:01:08.642Z,90.3
2019-02-04T01:02:09.294Z,90.6
2019-02-04T01:03:09.788Z,90.5
2019-02-04T01:04:09.823Z,90.5
2019-02-04T01:05:09.743Z,90.6
2019-02-04T01:06:09.672Z,90.6
2019-02-04T01:07:09.637Z,90.6
2019-02-04T01:08:09.694Z,90.6
2019-02-04T01:09:09.635Z,90.7
2019-02-04T01:10:10.401Z,90.6
2019-02-04T01:11:11.301Z,90.7
2019-02-04T01:12:11.235Z,90.8
2019-02-04T01:13:11.155Z,90.7
2019-02-04T01:14:11.073Z,90.7
2019-02-04T01:15:11.129Z,90.8
2019-02-04T01:16:11.027Z,90.7
2019-02-04T01:17:10.935Z,90.7
2019-02-04T01:18:11.530Z,90.7
2019-02-04T01:19:11.442Z,90.7
2019-02-04T01:20:11.359Z,90.7
2019-02-04T01:21:11.745Z,90.8
2019-02-04T01:22:11.686Z,90.8
2019-02-04T01:23:11.624Z,90.8
2019-02-04T01:24:11.549Z,90.7
2019-02-04T01:25:11.469Z,90.7
2019-02-04T01:26:11.737Z,90.6
2019-02-04T01:27:11.643Z,90.7
2019-02-04T01:28:11.562Z,90.8
2019-02-04T01:29:11.472Z,90.8
2019-02-04T01:30:11.480Z,90.9
2019-02-04T01:31:13.041Z,90.9
2019-02-04T01:32:12.958Z,90.8
2019-02-04T01:33:12.895Z,90.9
2019-02-04T01:34:12.825Z,90.9
2019-02-04T01:35:12.869Z,91
2019-02-04T01:36:12.930Z,91
2019-02-04T01:37:12.845Z,90.9
2019-02-04T01:38:12.799Z,90.9
2019-02-04T01:39:12.765Z,91
2019-02-04T01:40:12.706Z,90.9
2019-02-04T01:41:13.078Z,90.9
2019-02-04T01:42:13.014Z,91
2019-02-04T01:43:12.977Z,91.1
2019-02-04T01:44:12.891Z,91
2019-02-04T01:45:12.810Z,91.1
2019-02-04T01:46:12.741Z,91
2019-02-04T01:47:15.610Z,91
2019-02-04T01:48:15.556Z,91
2019-02-04T01:49:15.473Z,91
2019-02-04T01:50:15.409Z,90.9
2019-02-04T01:51:16.152Z,91
2019-02-04T01:52:17.040Z,91.1
2019-02-04T01:53:16.979Z,91.4
2019-02-04T01:54:16.906Z,91.1
2019-02-04T01:55:16.808Z,91.1
2019-02-04T01:56:16.729Z,91
2019-02-04T01:57:16.660Z,91.1
2019-02-04T01:58:16.571Z,91.2
2019-02-04T01:59:17.691Z,91.2
2019-02-04T02:00:18.484Z,91.1
2019-02-04T02:01:18.867Z,91
2019-02-04T02:02:18.797Z,91
2019-02-04T02:03:18.704Z,90.9
2019-02-04T02:04:18.650Z,90.9
2019-02-04T02:05:18.572Z,90.9
2019-02-04T02:06:18.491Z,90.9
2019-02-04T02:07:19.440Z,91
2019-02-04T02:08:20.330Z,90.9
2019-02-04T02:09:20.236Z,90.9
2019-02-04T02:10:20.186Z,91
2019-02-04T02:11:20.590Z,91.1
2019-02-04T02:20:26.626Z,88.2
2019-02-04T02:21:27.012Z,88.3
2019-02-04T02:22:26.930Z,89.2
2019-02-04T02:23:26.858Z,89.5
2019-02-04T02:24:27.720Z,89.7
2019-02-04T02:25:28.690Z,89.8
2019-02-04T02:26:28.732Z,89.6
2019-02-04T02:27:28.643Z,89.5
2019-02-04T02:28:28.564Z,89.6
2019-02-04T02:29:29.500Z,89.7
2019-02-04T02:30:29.442Z,89.8
2019-02-04T02:31:29.892Z,89.8
2019-02-04T02:32:30.616Z,89.8
2019-02-04T02:33:31.340Z,89.9
2019-02-04T02:34:31.266Z,89.9
2019-02-04T02:35:31.202Z,89.9
2019-02-04T02:36:31.142Z,89.9
2019-02-04T02:37:31.142Z,89.9
2019-02-04T02:38:31.120Z,90
2019-02-04T02:39:31.062Z,90
2019-02-04T02:40:32.186Z,90.4
2019-02-04T02:41:33.976Z,90.1
2019-02-04T02:42:33.902Z,90.1
2019-02-04T02:43:33.833Z,89.7
2019-02-04T02:57:38.547Z,86.2
2019-02-04T03:01:39.355Z,85.3
2019-02-04T03:02:39.316Z,86
2019-02-04T03:03:39.240Z,86.5
2019-02-04T03:04:39.644Z,86.9
2019-02-04T03:05:39.991Z,87.5
2019-02-04T03:06:39.932Z,87.6
2019-02-04T03:07:39.847Z,87.6
2019-02-04T03:08:39.810Z,88.1
2019-02-04T03:09:39.834Z,88.4
2019-02-04T03:10:39.751Z,88.7
2019-02-04T03:11:40.157Z,89.1
2019-02-04T03:12:41.014Z,89.4
2019-02-04T03:13:40.946Z,89.5
2019-02-04T03:14:40.859Z,89.7
2019-02-04T03:15:40.807Z,90.1
2019-02-04T03:16:40.724Z,90
2019-02-04T03:17:53.298Z,90
2019-02-04T03:18:53.249Z,89.9
2019-02-04T03:19:53.177Z,90
2019-02-04T03:20:53.105Z,90
2019-02-04T03:21:53.507Z,90
2019-02-04T03:22:54.467Z,89.6
2019-02-04T03:23:55.423Z,88.9
2019-02-04T03:24:55.346Z,88.8
2019-02-04T03:25:55.265Z,89.3
2019-02-04T03:26:55.188Z,89.4
2019-02-04T03:27:55.127Z,89.8
2019-02-04T03:28:55.094Z,90
2019-02-04T03:29:55.024Z,90.1
2019-02-04T03:30:55.932Z,90
2019-02-04T03:31:57.531Z,89.5
2019-02-04T03:32:57.505Z,89.6
2019-02-04T03:33:57.557Z,89.6
2019-02-04T03:34:57.515Z,89.8
2019-02-04T03:35:57.471Z,90.6
2019-02-04T03:36:57.405Z,90.2
2019-02-04T03:37:57.342Z,90.4
2019-02-04T03:38:58.033Z,90.5
2019-02-04T03:39:58.729Z,90.6
2019-02-04T03:41:01.693Z,90.7
2019-02-04T03:42:02.097Z,90.7
2019-02-04T03:43:02.095Z,90.9
2019-02-04T03:44:02.036Z,90.8
2019-02-04T03:45:02.105Z,90.8
2019-02-04T03:46:02.048Z,90.8
2019-02-04T03:47:02.121Z,90.8
2019-02-04T03:48:10.214Z,90.9
2019-02-04T03:49:10.259Z,90.8
2019-02-04T03:50:10.226Z,90.9
2019-02-04T03:51:10.154Z,90.9
2019-02-04T03:52:10.535Z,90.9
2019-02-04T03:53:10.443Z,90.9
2019-02-04T03:54:10.363Z,91.1
2019-02-04T03:55:10.297Z,91
2019-02-04T03:56:10.241Z,91
2019-02-04T03:57:10.159Z,90.9
2019-02-04T03:58:10.127Z,90.9
2019-02-04T03:59:10.027Z,91
2019-02-04T04:00:09.985Z,91
2019-02-04T04:01:09.954Z,91
2019-02-04T04:02:10.297Z,90.9
2019-02-04T04:03:10.240Z,91
2019-02-04T04:04:10.158Z,90.8
2019-02-04T04:05:10.089Z,90.8
2019-02-04T04:06:10.043Z,90.7
2019-02-04T04:07:09.989Z,90.6
2019-02-04T04:08:10.009Z,90.6
2019-02-04T04:09:09.945Z,90.5
2019-02-04T04:10:10.108Z,90.5
2019-02-04T04:11:10.037Z,90.5
2019-02-04T04:12:10.809Z,90.8
2019-02-04T04:13:10.723Z,90.8
2019-02-04T04:14:10.639Z,90.5
2019-02-04T04:15:10.554Z,90.6
2019-02-04T04:16:10.491Z,90.6
2019-02-04T04:17:10.435Z,90.6
2019-02-04T04:18:16.826Z,90.6
2019-02-04T04:19:16.745Z,90.6
2019-02-04T04:20:16.661Z,90.6
2019-02-04T04:21:17.438Z,90.6
2019-02-04T04:22:18.693Z,90.6
2019-02-04T04:23:18.593Z,90.5
2019-02-04T04:24:18.503Z,90.5
2019-02-04T04:25:18.461Z,90.5
2019-02-04T04:26:21.343Z,90.4
2019-02-04T04:27:22.318Z,90.3
2019-02-04T04:28:22.241Z,90.3
2019-02-04T04:29:22.577Z,90.3
2019-02-04T04:30:22.597Z,90.1
2019-02-04T04:31:22.531Z,90.1
2019-02-04T04:32:25.337Z,90.1
2019-02-04T04:33:25.595Z,90.3
2019-02-04T04:34:25.658Z,90.3
2019-02-04T04:35:25.609Z,90.3
2019-02-04T04:36:25.538Z,90.3
2019-02-04T04:37:25.653Z,90.1
2019-02-04T04:38:25.702Z,90
2019-02-04T04:39:26.587Z,90.2
2019-02-04T04:40:26.505Z,90.1
2019-02-04T04:41:26.413Z,90.1
2019-02-04T04:42:27.765Z,90.2
2019-02-04T04:43:27.693Z,90.4
2019-02-04T04:44:27.603Z,90.3
2019-02-04T04:45:27.583Z,90.4
2019-02-04T04:46:28.567Z,90.9
2019-02-04T04:47:29.289Z,90.4
2019-02-04T04:48:29.217Z,90.6
2019-02-04T04:49:29.119Z,90.7
2019-02-04T04:50:33.207Z,90.6
2019-02-04T04:51:33.129Z,90.7
2019-02-04T04:52:33.511Z,90.7
2019-02-04T04:53:33.475Z,90.2
2019-02-04T04:55:33.834Z,89.6
2019-02-04T05:02:33.833Z,87.7
2019-02-04T05:03:34.937Z,88.5
2019-02-04T05:04:34.911Z,89
2019-02-04T05:05:34.838Z,89.4
2019-02-04T05:06:34.793Z,88.9
2019-02-04T05:07:34.717Z,89
2019-02-04T05:08:37.536Z,89.2
2019-02-04T05:09:37.461Z,88.9
2019-02-04T05:10:38.015Z,87.9
2019-02-04T05:11:38.016Z,88.2
2019-02-04T05:12:38.407Z,88.9
2019-02-04T05:13:38.330Z,89.1
2019-02-04T05:22:41.719Z,86.3
2019-02-04T05:23:41.649Z,87
2019-02-04T05:24:41.559Z,87.2
2019-02-04T05:25:41.515Z,87.2
2019-02-04T05:26:41.535Z,87.7
2019-02-04T05:27:42.531Z,88.2
2019-02-04T05:28:43.330Z,88.3
2019-02-04T05:29:43.238Z,88.2
2019-02-04T05:30:43.191Z,88
2019-02-04T05:31:43.124Z,88
2019-02-04T05:32:44.719Z,87.8
2019-02-04T05:33:44.660Z,88
2019-02-04T05:34:44.630Z,88.2
2019-02-04T05:35:45.434Z,88.2
2019-02-04T05:36:45.880Z,88.3
2019-02-04T05:37:45.802Z,88.5
2019-02-04T05:38:45.957Z,88.7
2019-02-04T05:39:45.887Z,88.9
2019-02-04T05:40:46.520Z,89.4
2019-02-04T05:41:46.552Z,89.4
2019-02-04T05:42:46.977Z,89.1
2019-02-04T05:43:47.399Z,89.1
2019-02-04T05:44:51.699Z,90
2019-02-04T05:45:52.488Z,89.4
2019-02-04T05:46:52.852Z,89.6
2019-02-04T05:47:52.846Z,89.7
2019-02-04T05:48:52.806Z,89.8
2019-02-04T05:49:52.738Z,90
2019-02-04T05:50:52.898Z,90
2019-02-04T05:51:55.740Z,90
2019-02-04T05:52:56.876Z,89.9
2019-02-04T05:53:57.264Z,90
2019-02-04T05:54:57.174Z,90
2019-02-04T05:55:57.094Z,90
2019-02-04T05:56:57.045Z,90
2019-02-04T05:57:56.958Z,90.1
2019-02-04T05:58:56.890Z,90.1
2019-02-04T05:59:56.853Z,90.1
2019-02-04T06:00:57.610Z,90
2019-02-04T06:01:58.010Z,90
2019-02-04T06:02:58.623Z,90.1
2019-02-04T06:03:58.544Z,90.2
2019-02-04T06:04:58.710Z,90.2
2019-02-04T06:05:58.630Z,90.1
2019-02-04T06:06:58.556Z,90.1
2019-02-04T06:07:58.608Z,90.2
2019-02-04T06:08:59.291Z,90.1
2019-02-04T06:09:59.780Z,90.2
2019-02-04T06:10:59.714Z,90.2
2019-02-04T06:11:59.635Z,90.2
2019-02-04T06:13:00.260Z,90.2
2019-02-04T06:14:00.178Z,90.3
2019-02-04T06:15:00.305Z,90.2
2019-02-04T06:16:01.279Z,90.4
2019-02-04T06:17:01.864Z,90.2
2019-02-04T06:18:02.203Z,90.2
2019-02-04T06:19:02.143Z,90.2
2019-02-04T06:20:03.868Z,90.3
2019-02-04T06:21:03.798Z,90.3
2019-02-04T06:22:03.713Z,90.4
2019-02-04T06:23:04.123Z,90.4
2019-02-04T06:24:04.071Z,89.9
2019-02-04T06:25:04.010Z,89.8
2019-02-04T06:33:04.792Z,88.1
2019-02-04T06:34:04.721Z,88.6
2019-02-04T06:35:04.686Z,88.7
2019-02-04T06:36:04.662Z,88.9
2019-02-04T06:37:04.591Z,88.9
2019-02-04T06:38:04.551Z,88.9
2019-02-04T06:39:04.484Z,89.5
2019-02-04T06:40:04.406Z,89.8
2019-02-04T06:41:04.896Z,90
2019-02-04T06:42:04.882Z,90.1
2019-02-04T06:43:05.227Z,90
2019-02-04T06:44:05.286Z,90.1
2019-02-04T06:45:05.210Z,90.2
2019-02-04T06:46:05.134Z,90
2019-02-04T06:47:05.038Z,90
2019-02-04T06:48:04.970Z,90.1
2019-02-04T06:49:13.244Z,90.1
2019-02-04T06:50:14.072Z,90.3
2019-02-04T06:51:14.662Z,90.3
2019-02-04T06:52:14.631Z,90.5
2019-02-04T06:53:15.023Z,90.6
2019-02-04T06:54:14.958Z,90.6
2019-02-04T06:55:14.872Z,90.5
2019-02-04T06:56:14.786Z,90.6
2019-02-04T06:57:14.722Z,90.6
2019-02-04T06:58:15.416Z,90.6
2019-02-04T06:59:16.036Z,90.5
2019-02-04T07:00:15.996Z,90.5
2019-02-04T07:01:15.894Z,90
2019-02-04T07:02:15.816Z,90.1
2019-02-04T07:03:17.352Z,90.3
2019-02-04T07:04:17.290Z,90.6
2019-02-04T07:05:17.269Z,90.6
2019-02-04T07:06:18.052Z,90.6
2019-02-04T07:07:18.574Z,90.5
2019-02-04T07:08:18.507Z,90.5
2019-02-04T07:09:18.434Z,90.7
2019-02-04T07:10:18.360Z,90.9
2019-02-04T07:11:19.441Z,91
2019-02-04T07:12:19.366Z,91
2019-02-04T07:13:19.780Z,90.9
2019-02-04T07:14:20.551Z,90.7
2019-02-04T07:15:21.250Z,90.8
2019-02-04T07:16:21.218Z,90.7
2019-02-04T07:17:21.139Z,90.6
2019-02-04T07:18:21.130Z,90.8
2019-02-04T07:19:25.306Z,90.8
2019-02-04T07:20:25.301Z,90.6
2019-02-04T07:21:25.256Z,90.4
2019-02-04T07:22:25.675Z,90.4
2019-02-04T07:23:26.100Z,90.6
2019-02-04T07:24:26.029Z,90.6
2019-02-04T07:25:25.968Z,90.7
2019-02-04T07:26:25.898Z,90.7
2019-02-04T07:27:25.970Z,90.4
2019-02-04T07:28:26.004Z,90.2
2019-02-04T07:29:26.024Z,90.3
2019-02-04T07:30:26.965Z,90.5
2019-02-04T07:31:27.691Z,90.4
2019-02-04T07:32:27.610Z,90.4
2019-02-04T07:33:27.976Z,90.4
2019-02-04T07:34:27.922Z,90.5
2019-02-04T07:35:27.902Z,90.5
2019-02-04T07:36:27.815Z,90.4
2019-02-04T07:37:27.758Z,90.1
2019-02-04T07:38:28.709Z,90.1
2019-02-04T07:39:29.173Z,90.1
2019-02-04T07:40:29.107Z,90.2
2019-02-04T07:41:29.041Z,90.2
2019-02-04T07:42:28.965Z,90.2
2019-02-04T07:43:29.360Z,90.2
2019-02-04T07:44:29.294Z,90.1
2019-02-04T07:45:29.234Z,90
2019-02-04T07:46:30.175Z,90
2019-02-04T07:47:30.983Z,90
2019-02-04T07:48:30.905Z,90.1
2019-02-04T07:49:36.196Z,90
2019-02-04T07:50:36.106Z,90
2019-02-04T07:51:36.038Z,90
2019-02-04T07:52:36.045Z,90.2
2019-02-04T07:53:36.656Z,90.3
2019-02-04T07:54:36.608Z,90.1
2019-02-04T07:55:36.516Z,90.1
2019-02-04T07:56:36.847Z,90.4
2019-02-04T07:57:36.756Z,90.6
2019-02-04T07:58:36.687Z,90
2019-02-04T07:59:36.595Z,90.4
2019-02-04T08:00:36.538Z,90.3
2019-02-04T08:01:36.496Z,90.2
2019-02-04T08:02:36.489Z,90.3
2019-02-04T08:03:36.866Z,90.2
2019-02-04T08:04:36.779Z,90.2
2019-02-04T08:05:36.698Z,89.8
2019-02-04T08:06:36.655Z,89.7
2019-02-04T08:07:36.569Z,89.3
2019-02-04T08:08:36.494Z,89.2
2019-02-04T08:09:36.421Z,88.3
2019-02-04T08:10:36.775Z,88.3
2019-02-04T08:11:37.020Z,87.6
2019-02-04T08:12:36.921Z,87.6
2019-02-04T08:13:37.347Z,88.1
2019-02-04T08:14:37.287Z,88.4
2019-02-04T08:23:47.663Z,81.8
2019-02-04T08:24:47.611Z,82.3
2019-02-04T08:25:47.623Z,82.1
2019-02-04T08:26:47.531Z,81.6
2019-02-04T08:27:48.223Z,82.4
2019-02-04T08:28:48.967Z,83.3
2019-02-04T08:29:48.926Z,83.8
2019-02-04T08:30:48.929Z,83.4
2019-02-04T08:31:48.885Z,83.8
2019-02-04T08:32:48.814Z,83.7
2019-02-04T08:33:49.251Z,83.2
2019-02-04T08:34:49.211Z,83.2
2019-02-04T08:35:49.854Z,83.4
2019-02-04T08:36:50.375Z,83.2
2019-02-04T08:37:50.331Z,82.4
2019-02-04T08:38:50.283Z,82.2
2019-02-04T08:39:50.259Z,82.3
2019-02-04T08:40:50.231Z,82.1
2019-02-04T08:41:50.178Z,81.3
2019-02-04T08:42:50.157Z,80.9
2019-02-04T08:43:54.900Z,80.9
2019-02-04T08:44:55.574Z,80.9
2019-02-04T08:45:55.559Z,80.6
2019-02-04T08:46:55.501Z,80.7
2019-02-04T08:47:55.491Z,80.6
2019-02-04T08:48:55.464Z,81
2019-02-04T08:50:03.061Z,80.6
2019-02-04T08:51:03.222Z,80.2
2019-02-04T08:52:03.212Z,80
2019-02-04T08:53:03.609Z,80.7
2019-02-04T08:54:08.493Z,80.7
2019-02-04T08:55:08.429Z,81
2019-02-04T08:56:08.377Z,80.8
2019-02-04T08:57:08.337Z,81.3
2019-02-04T08:58:08.443Z,82.1
2019-02-04T08:59:08.509Z,81.4
2019-02-04T09:00:08.523Z,80.8
2019-02-04T09:01:09.127Z,80.6
2019-02-04T09:02:09.991Z,81.6
2019-02-04T09:03:10.018Z,81.5
2019-02-04T09:04:10.473Z,81
2019-02-04T09:05:10.449Z,81
2019-02-04T09:06:10.410Z,80.9
2019-02-04T09:07:10.461Z,80.7
2019-02-04T09:08:10.409Z,79.8
2019-02-04T09:09:10.400Z,79.8
2019-02-04T09:10:15.777Z,79.9
2019-02-04T09:12:15.618Z,80.2
2019-02-04T09:14:15.959Z,79.6
2019-02-04T09:15:17.079Z,80.1
2019-02-04T09:16:17.043Z,80.3
2019-02-04T09:17:17.766Z,80.1
2019-02-04T09:18:18.689Z,79.9
2019-02-04T09:19:18.745Z,79.4
2019-02-04T09:20:21.404Z,79.2
2019-02-04T09:21:21.372Z,80.5
2019-02-04T09:22:21.437Z,79.8
2019-02-04T09:23:21.409Z,80.1
2019-02-04T09:24:21.867Z,79.8
2019-02-04T09:25:22.871Z,80.3
2019-02-04T09:26:23.630Z,80.1
2019-02-04T09:27:23.593Z,80.2
2019-02-04T09:28:23.585Z,79.9
2019-02-04T09:29:23.562Z,80
2019-02-04T09:30:23.555Z,79.7
2019-02-04T09:31:23.521Z,79.5
2019-02-04T09:32:23.481Z,79.9
2019-02-04T09:33:24.246Z,79.6
2019-02-04T09:34:25.904Z,80.6
2019-02-04T09:35:25.859Z,80.7
2019-02-04T09:36:25.915Z,80.7
2019-02-04T09:37:26.059Z,81.8
2019-02-04T09:38:26.067Z,82.1
2019-02-04T09:39:26.031Z,81.5
2019-02-04T09:40:26.117Z,81.8
2019-02-04T09:41:27.206Z,81.7
2019-02-04T09:42:28.101Z,81.3
2019-02-04T09:43:28.081Z,80.8
2019-02-04T09:44:28.607Z,81.8
2019-02-04T09:45:28.877Z,82.2
2019-02-04T09:46:28.825Z,81.3
2019-02-04T09:47:28.810Z,82.5
2019-02-04T09:48:28.917Z,80.1
2019-02-04T09:49:29.943Z,79.6
2019-02-04T09:50:33.289Z,80.8
2019-02-04T09:52:33.037Z,80.3
2019-02-04T09:53:33.048Z,79.5
2019-02-04T09:54:33.671Z,79.4
2019-02-04T09:55:33.760Z,80.7
2019-02-04T09:56:33.780Z,80.7
2019-02-04T09:57:34.647Z,79.8
2019-02-04T09:58:35.353Z,80
2019-02-04T09:59:35.275Z,80.8
2019-02-04T10:00:35.199Z,80.8
2019-02-04T10:01:35.122Z,80.9
2019-02-04T10:02:35.039Z,80.3
2019-02-04T10:03:34.967Z,80
2019-02-04T10:04:35.411Z,80.2
2019-02-04T10:05:36.331Z,80.8
2019-02-04T10:06:36.983Z,81.2
2019-02-04T10:07:36.943Z,81.2
2019-02-04T10:08:36.892Z,81
2019-02-04T10:09:36.833Z,80.9
2019-02-04T10:10:36.787Z,81.1
2019-02-04T10:11:36.720Z,81.9
2019-02-04T10:12:36.655Z,81
2019-02-04T10:13:37.339Z,80.7
2019-02-04T10:14:38.279Z,80.9
2019-02-04T10:15:38.369Z,80.9
2019-02-04T10:16:38.530Z,80.6
2019-02-04T10:17:38.642Z,79.7
2019-02-04T10:18:38.727Z,79.7
2019-02-04T10:19:38.797Z,79.5
2019-02-04T10:20:38.942Z,78.5
2019-02-04T10:21:39.008Z,78.7
2019-02-04T10:22:39.204Z,79
2019-02-04T10:23:39.241Z,79.6
2019-02-04T10:24:39.957Z,78.9
2019-02-04T10:25:40.073Z,79.5
2019-02-04T10:26:40.259Z,79.3
2019-02-04T10:27:40.289Z,79.3
2019-02-04T10:28:40.376Z,79.4
2019-02-04T10:29:40.841Z,78.1
2019-02-04T10:30:41.081Z,79.6
2019-02-04T10:31:41.380Z,80.2
2019-02-04T10:32:44.529Z,80.5
2019-02-04T10:33:44.670Z,79.6
2019-02-04T10:34:45.365Z,79.8
2019-02-04T10:35:45.463Z,79.7
2019-02-04T10:36:45.487Z,79.4
2019-02-04T10:37:45.699Z,80.1
2019-02-04T10:38:46.457Z,79.7
2019-02-04T10:39:47.407Z,80
2019-02-04T10:40:47.538Z,80.5
2019-02-04T10:41:47.683Z,80.4
2019-02-04T10:42:47.744Z,79.9
2019-02-04T10:43:47.845Z,80.2
2019-02-04T10:44:48.481Z,80.4
2019-02-04T10:45:48.675Z,81
2019-02-04T10:46:49.565Z,80.7
2019-02-04T10:47:50.539Z,80.7
2019-02-04T10:48:50.685Z,80.4
2019-02-04T10:49:50.797Z,79.5
2019-02-04T10:50:50.886Z,78.9
2019-02-04T10:51:50.966Z,79.2
2019-02-04T10:52:51.059Z,79.5
2019-02-04T10:53:51.287Z,79.6
2019-02-04T10:54:52.966Z,79.9
2019-02-04T10:55:53.842Z,80
2019-02-04T10:56:53.961Z,79.2
2019-02-04T10:57:54.099Z,78.9
2019-02-04T10:58:54.115Z,78.5
2019-02-04T10:59:54.228Z,79.8
2019-02-04T11:00:54.422Z,80
2019-02-04T11:01:54.478Z,80.1
2019-02-04T11:02:55.443Z,78
2019-02-04T11:03:56.497Z,77.5
2019-02-04T11:04:57.064Z,78.9
2019-02-04T11:05:57.230Z,78
2019-02-04T11:06:57.421Z,78.1
2019-02-04T11:07:57.604Z,78.5
2019-02-04T11:08:57.736Z,79.4
2019-02-04T11:09:57.797Z,80.3
2019-02-04T11:10:58.468Z,80.5
2019-02-04T11:11:58.874Z,80
2019-02-04T11:12:58.891Z,79.6
2019-02-04T11:13:59.020Z,79
2019-02-04T11:14:59.667Z,79.7
2019-02-04T11:15:59.763Z,78.5
2019-02-04T11:16:59.830Z,79.1
2019-02-04T11:18:00.019Z,79.6
2019-02-04T11:19:00.304Z,78.8
2019-02-04T11:20:00.640Z,78.6
2019-02-04T11:21:00.756Z,77.1
2019-02-04T11:22:00.968Z,77.5
2019-02-04T11:23:01.057Z,76.6
2019-02-04T11:24:01.214Z,76.2
2019-02-04T11:25:01.824Z,75.8
2019-02-04T11:26:02.034Z,76.8
2019-02-04T11:27:02.242Z,77.8
2019-02-04T11:28:02.555Z,78.3
2019-02-04T11:29:02.807Z,77.6
2019-02-04T11:30:03.042Z,76
2019-02-04T11:31:03.348Z,76.9
2019-02-04T11:32:03.583Z,78.5
2019-02-04T11:33:03.690Z,77.4
2019-02-04T11:34:03.849Z,76
2019-02-04T11:35:04.437Z,76.9
2019-02-04T11:36:04.673Z,77.6
2019-02-04T11:37:05.316Z,77.7
2019-02-04T11:38:05.475Z,77.2
2019-02-04T11:39:05.611Z,77.6
2019-02-04T11:40:06.046Z,77.6
2019-02-04T11:41:06.227Z,77.9
2019-02-04T11:42:06.240Z,78.2
2019-02-04T11:43:06.382Z,79.2
2019-02-04T11:44:06.758Z,79.4
2019-02-04T11:45:08.729Z,79.7
2019-02-04T11:46:08.817Z,79.7
2019-02-04T11:47:08.982Z,78.3
2019-02-04T11:48:09.158Z,78.5
2019-02-04T11:49:09.276Z,78.7
2019-02-04T11:50:09.220Z,78.7
2019-02-04T11:51:10.724Z,79.3
2019-02-04T11:52:11.508Z,79.7
2019-02-04T11:53:13.323Z,79.6
2019-02-04T11:54:13.264Z,79.6
2019-02-04T11:55:13.638Z,79.5
2019-02-04T11:56:13.573Z,79.5
2019-02-04T11:57:13.530Z,80.1
2019-02-04T11:58:13.469Z,80.5
2019-02-04T11:59:13.389Z,80.5
2019-02-04T12:00:14.147Z,81.2
2019-02-04T12:01:14.943Z,81.7
2019-02-04T12:02:14.887Z,81.2
2019-02-04T12:03:14.822Z,81.3
2019-02-04T12:04:14.852Z,82.2
2019-02-04T12:05:16.683Z,82
2019-02-04T12:06:18.302Z,82.4
2019-02-04T12:07:18.256Z,82.3
2019-02-04T12:08:18.623Z,82.2
2019-02-04T12:09:18.543Z,82.8
2019-02-04T12:10:18.491Z,82.7
2019-02-04T12:11:18.432Z,82.8
2019-02-04T12:12:18.357Z,82.9
2019-02-04T12:13:18.325Z,82.9
2019-02-04T12:14:18.244Z,83.4
2019-02-04T12:15:18.619Z,84.4
2019-02-04T12:16:19.188Z,84.3
2019-02-04T12:17:19.697Z,84.4
2019-02-04T12:18:19.639Z,83.7
2019-02-04T12:19:19.567Z,84.3
2019-02-04T12:20:19.601Z,84.4
2019-02-04T12:21:22.443Z,84
2019-02-04T12:22:22.358Z,83.9
2019-02-04T12:23:22.304Z,84.3
2019-02-04T12:24:22.224Z,84.8
2019-02-04T12:25:22.655Z,84.6
2019-02-04T12:26:22.669Z,85
2019-02-04T12:27:33.008Z,85
2019-02-04T12:28:32.975Z,84.9
2019-02-04T12:29:32.878Z,84
2019-02-04T12:30:32.837Z,84.3
2019-02-04T12:31:32.751Z,84.3
2019-02-04T12:32:32.672Z,84.1
2019-02-04T12:33:32.795Z,83.7
2019-02-04T12:34:32.731Z,83.6
2019-02-04T12:35:34.134Z,83.9
2019-02-04T12:36:34.115Z,84
2019-02-04T12:37:34.231Z,84.2
2019-02-04T12:38:34.162Z,84.3
2019-02-04T12:39:34.113Z,84.3
2019-02-04T12:40:34.059Z,84
2019-02-04T12:41:34.579Z,83.8
2019-02-04T12:42:34.585Z,83.5
2019-02-04T12:43:34.500Z,83.7
2019-02-04T12:44:34.436Z,83.9
2019-02-04T12:45:34.976Z,84.5
2019-02-04T12:46:35.037Z,84.7
2019-02-04T12:47:34.968Z,85.2
2019-02-04T12:48:35.035Z,85.1
2019-02-04T12:49:35.814Z,84.4
2019-02-04T12:50:36.288Z,84.6
2019-02-04T12:51:36.217Z,84.9
2019-02-04T12:52:36.129Z,85.3
2019-02-04T12:53:36.063Z,85.5
2019-02-04T12:54:36.135Z,85.2
2019-02-04T12:55:36.535Z,85.6
2019-02-04T12:56:36.471Z,85.7
2019-02-04T12:57:36.988Z,86.1
2019-02-04T12:58:37.675Z,86
2019-02-04T12:59:37.642Z,86.3
2019-02-04T13:00:37.583Z,85.6
2019-02-04T13:01:37.671Z,86.7
2019-02-04T13:02:37.645Z,86.3
2019-02-04T13:03:37.559Z,86.1
2019-02-04T13:04:37.522Z,86
2019-02-04T13:05:38.872Z,86.1
2019-02-04T13:06:39.543Z,86.5
2019-02-04T13:07:39.479Z,86.3
2019-02-04T13:08:39.399Z,85.5
2019-02-04T13:09:39.320Z,85.4
2019-02-04T13:10:39.282Z,85.6
2019-02-04T13:11:39.276Z,85.4
2019-02-04T13:12:39.199Z,85.6
2019-02-04T13:13:39.939Z,85.6
2019-02-04T13:14:40.622Z,85.6
2019-02-04T13:15:41.012Z,84.9
2019-02-04T13:16:40.939Z,85.1
2019-02-04T13:17:40.861Z,85.2
2019-02-04T13:18:40.795Z,85
2019-02-04T13:19:40.811Z,85.1
2019-02-04T13:20:40.764Z,85.6
2019-02-04T13:21:46.360Z,85.6
2019-02-04T13:22:50.012Z,85.1
2019-02-04T13:23:50.821Z,86.9
2019-02-04T13:24:50.778Z,85.6
2019-02-04T13:25:51.205Z,85.4
2019-02-04T13:26:51.119Z,85.8
2019-02-04T13:27:51.044Z,85.5
2019-02-04T13:28:50.981Z,85
2019-02-04T13:29:50.966Z,85.2
2019-02-04T13:30:51.813Z,85.3
2019-02-04T13:31:52.593Z,84.9
2019-02-04T13:32:52.523Z,85.1
2019-02-04T13:33:52.443Z,85.4
2019-02-04T13:34:52.376Z,85.3
2019-02-04T13:35:54.000Z,85.6
2019-02-04T13:36:53.927Z,85.8
2019-02-04T13:37:53.931Z,85.6
2019-02-04T13:38:54.227Z,85.6
2019-02-04T13:39:54.475Z,85.4
2019-02-04T13:40:54.393Z,85.5
2019-02-04T13:41:54.341Z,86.1
2019-02-04T13:42:54.275Z,85.9
2019-02-04T13:43:54.193Z,86
2019-02-04T13:44:54.120Z,86.2
2019-02-04T13:45:54.505Z,86
2019-02-04T13:46:55.281Z,85.6
2019-02-04T13:47:55.769Z,85.9
2019-02-04T13:48:55.709Z,85.9
2019-02-04T13:49:55.637Z,85.8
2019-02-04T13:50:55.591Z,86.7
2019-02-04T13:51:58.502Z,85.6
2019-02-04T13:52:58.441Z,85.4
2019-02-04T13:53:58.371Z,85.1
2019-02-04T13:54:58.411Z,85.1
2019-02-04T13:55:58.868Z,84.5
2019-02-04T13:56:58.851Z,85.1
2019-02-04T13:57:58.811Z,86
2019-02-04T13:58:58.730Z,85.6
2019-02-04T13:59:58.677Z,85.4
2019-02-04T14:00:58.613Z,85.3
2019-02-04T14:01:58.540Z,85.4
2019-02-04T14:03:00.445Z,85.1
2019-02-04T14:04:00.499Z,85.5
2019-02-04T14:05:01.405Z,85.1
2019-02-04T14:06:01.917Z,85
2019-02-04T14:07:01.838Z,85.5
2019-02-04T14:08:01.914Z,85.2
2019-02-04T14:09:01.866Z,85.3
2019-02-04T14:10:01.833Z,84.7
2019-02-04T14:11:01.801Z,84.9
2019-02-04T14:12:02.848Z,85.3
2019-02-04T14:13:03.706Z,85.2
2019-02-04T14:14:03.644Z,85.6
2019-02-04T14:15:03.698Z,85.7
2019-02-04T14:16:06.041Z,85.6
2019-02-04T14:17:05.969Z,85.1
2019-02-04T14:18:05.961Z,85.3
2019-02-04T14:19:05.911Z,85.8
2019-02-04T14:20:06.787Z,85.8
2019-02-04T14:21:09.841Z,85.3
2019-02-04T14:22:10.662Z,85.1
2019-02-04T14:23:10.748Z,85.6
2019-02-04T14:24:10.671Z,85.8
2019-02-04T14:25:10.586Z,85.8
2019-02-04T14:26:11.003Z,86
2019-02-04T14:27:10.925Z,85.3
2019-02-04T14:28:10.879Z,85.8
2019-02-04T14:29:11.669Z,85.9
2019-02-04T14:30:12.359Z,86.9
2019-02-04T14:31:12.277Z,85.8
2019-02-04T14:32:12.206Z,85.7
2019-02-04T14:33:12.184Z,85.8
2019-02-04T14:34:12.136Z,85.7
2019-02-04T14:35:12.072Z,86.1
2019-02-04T14:36:12.458Z,86
2019-02-04T14:37:13.327Z,85.7
2019-02-04T14:38:13.977Z,85.7
2019-02-04T14:39:13.919Z,85.6
2019-02-04T14:40:19.664Z,85.8